sensor_id;sensor_type;location;lat;lon;timestamp;P1;P2;P0
59179;PMS7003;44956;52.422;20.818;2022-12-29T00:02:29;29.67;26.00;16.00
59179;PMS7003;44956;52.422;20.818;2022-12-29T00:05:33;31.00;25.67;12.00
59179;PMS7003;44956;52.422;20.818;2022-12-29T00:08:36;25.00;22.33;13.33
59179;PMS7003;44956;52.422;20.818;2022-12-29T00:11:43;25.00;20.33;14.33
59179;PMS7003;44956;52.422;20.818;2022-12-29T00:14:49;27.00;23.00;15.00
59179;PMS7003;44956;52.422;20.818;2022-12-29T00:18:11;23.67;21.00;12.33
59179;PMS7003;44956;52.422;20.818;2022-12-29T00:21:15;23.67;20.33;12.00
59179;PMS7003;44956;52.422;20.818;2022-12-29T00:24:38;23.33;19.00;12.00
59179;PMS7003;44956;52.422;20.818;2022-12-29T00:28:00;22.33;21.67;14.00
59179;PMS7003;44956;52.422;20.818;2022-12-29T00:31:22;18.67;16.67;9.00
59179;PMS7003;44956;52.422;20.818;2022-12-29T00:34:44;23.00;16.00;11.00
59179;PMS7003;44956;52.422;20.818;2022-12-29T00:38:05;22.00;20.33;11.00
59179;PMS7003;44956;52.422;20.818;2022-12-29T00:41:28;21.00;21.00;11.00
59179;PMS7003;44956;52.422;20.818;2022-12-29T00:44:50;17.00;14.00;10.33
59179;PMS7003;44956;52.422;20.818;2022-12-29T00:47:53;19.00;19.00;13.33
59179;PMS7003;44956;52.422;20.818;2022-12-29T00:50:57;22.67;18.67;13.00
59179;PMS7003;44956;52.422;20.818;2022-12-29T00:54:00;19.25;15.50;8.50
59179;PMS7003;44956;52.422;20.818;2022-12-29T00:57:04;21.00;16.00;10.50
59179;PMS7003;44956;52.422;20.818;2022-12-29T01:00:09;24.33;21.67;12.00
59179;PMS7003;44956;52.422;20.818;2022-12-29T01:03:13;19.67;18.33;11.00
59179;PMS7003;44956;52.422;20.818;2022-12-29T01:06:16;25.33;18.67;12.00
59179;PMS7003;44956;52.422;20.818;2022-12-29T01:09:19;20.33;18.00;8.67
59179;PMS7003;44956;52.422;20.818;2022-12-29T01:12:42;23.33;21.00;12.67
59179;PMS7003;44956;52.422;20.818;2022-12-29T01:15:51;18.75;14.75;7.50
59179;PMS7003;44956;52.422;20.818;2022-12-29T01:18:55;19.67;19.67;11.00
59179;PMS7003;44956;52.422;20.818;2022-12-29T01:21:58;25.33;22.67;15.00
59179;PMS7003;44956;52.422;20.818;2022-12-29T01:25:02;19.25;18.00;11.00
59179;PMS7003;44956;52.422;20.818;2022-12-29T01:28:06;19.75;17.00;11.00
59179;PMS7003;44956;52.422;20.818;2022-12-29T01:31:11;23.00;20.00;12.00
59179;PMS7003;44956;52.422;20.818;2022-12-29T01:34:15;22.50;20.00;10.50
59179;PMS7003;44956;52.422;20.818;2022-12-29T01:37:19;23.67;18.00;11.00
59179;PMS7003;44956;52.422;20.818;2022-12-29T01:40:22;21.50;17.75;11.00
59179;PMS7003;44956;52.422;20.818;2022-12-29T01:43:41;26.75;16.50;11.00
59179;PMS7003;44956;52.422;20.818;2022-12-29T01:46:55;19.67;16.67;9.00
59179;PMS7003;44956;52.422;20.818;2022-12-29T01:50:00;16.00;16.00;9.00
59179;PMS7003;44956;52.422;20.818;2022-12-29T01:53:15;20.50;17.75;9.00
59179;PMS7003;44956;52.422;20.818;2022-12-29T01:56:21;17.50;15.25;9.00
59179;PMS7003;44956;52.422;20.818;2022-12-29T01:59:26;17.25;12.50;8.00
59179;PMS7003;44956;52.422;20.818;2022-12-29T02:02:32;17.25;15.25;9.00
59179;PMS7003;44956;52.422;20.818;2022-12-29T02:08:50;22.75;18.75;11.25
59179;PMS7003;44956;52.422;20.818;2022-12-29T02:11:57;18.25;15.00;8.75
59179;PMS7003;44956;52.422;20.818;2022-12-29T02:15:00;22.67;16.67;11.00
59179;PMS7003;44956;52.422;20.818;2022-12-29T02:28:06;16.00;15.25;8.50
59179;PMS7003;44956;52.422;20.818;2022-12-29T02:31:24;18.67;18.67;11.00
59179;PMS7003;44956;52.422;20.818;2022-12-29T02:38:25;18.67;15.00;8.00
59179;PMS7003;44956;52.422;20.818;2022-12-29T02:45:36;16.33;14.00;9.00
59179;PMS7003;44956;52.422;20.818;2022-12-29T02:48:55;15.67;14.67;8.67
59179;PMS7003;44956;52.422;20.818;2022-12-29T02:52:18;16.00;13.00;8.00
59179;PMS7003;44956;52.422;20.818;2022-12-29T02:55:30;17.67;14.00;8.67
59179;PMS7003;44956;52.422;20.818;2022-12-29T02:58:44;17.67;15.00;8.00
59179;PMS7003;44956;52.422;20.818;2022-12-29T03:05:33;16.00;14.50;8.50
59179;PMS7003;44956;52.422;20.818;2022-12-29T03:15:11;20.00;15.00;9.33
59179;PMS7003;44956;52.422;20.818;2022-12-29T03:18:44;18.00;17.00;8.33
59179;PMS7003;44956;52.422;20.818;2022-12-29T03:22:00;15.00;15.00;10.33
59179;PMS7003;44956;52.422;20.818;2022-12-29T03:25:33;22.33;15.00;10.00
59179;PMS7003;44956;52.422;20.818;2022-12-29T03:28:44;15.67;15.67;9.00
59179;PMS7003;44956;52.422;20.818;2022-12-29T03:31:56;22.00;15.67;9.33
59179;PMS7003;44956;52.422;20.818;2022-12-29T03:35:10;15.33;11.67;5.00
59179;PMS7003;44956;52.422;20.818;2022-12-29T03:38:17;15.67;14.00;8.67
59179;PMS7003;44956;52.422;20.818;2022-12-29T03:41:26;22.33;14.33;7.00
59179;PMS7003;44956;52.422;20.818;2022-12-29T03:44:35;20.00;18.00;10.67
59179;PMS7003;44956;52.422;20.818;2022-12-29T03:47:39;17.67;14.67;9.33
59179;PMS7003;44956;52.422;20.818;2022-12-29T03:50:43;18.00;15.00;8.00
59179;PMS7003;44956;52.422;20.818;2022-12-29T03:53:45;17.33;11.67;7.00
59179;PMS7003;44956;52.422;20.818;2022-12-29T03:56:49;12.33;11.33;8.00
59179;PMS7003;44956;52.422;20.818;2022-12-29T04:00:03;15.00;14.00;8.00
59179;PMS7003;44956;52.422;20.818;2022-12-29T04:03:16;19.33;15.00;9.33
59179;PMS7003;44956;52.422;20.818;2022-12-29T04:06:19;19.00;14.67;9.33
59179;PMS7003;44956;52.422;20.818;2022-12-29T04:09:28;17.33;16.33;9.33
59179;PMS7003;44956;52.422;20.818;2022-12-29T04:12:33;17.33;16.33;10.00
59179;PMS7003;44956;52.422;20.818;2022-12-29T04:15:37;29.00;20.33;11.33
59179;PMS7003;44956;52.422;20.818;2022-12-29T04:18:40;11.00;11.00;8.00
59179;PMS7003;44956;52.422;20.818;2022-12-29T04:21:43;17.33;14.33;9.33
59179;PMS7003;44956;52.422;20.818;2022-12-29T04:24:46;18.00;14.67;8.33
59179;PMS7003;44956;52.422;20.818;2022-12-29T04:27:49;14.33;14.00;7.00
59179;PMS7003;44956;52.422;20.818;2022-12-29T04:31:12;17.00;12.67;7.33
59179;PMS7003;44956;52.422;20.818;2022-12-29T04:34:17;14.33;12.00;8.00
59179;PMS7003;44956;52.422;20.818;2022-12-29T04:37:21;11.33;7.00;5.00
59179;PMS7003;44956;52.422;20.818;2022-12-29T04:40:25;18.33;14.33;8.00
59179;PMS7003;44956;52.422;20.818;2022-12-29T04:43:29;12.33;12.33;7.00
59179;PMS7003;44956;52.422;20.818;2022-12-29T04:46:53;10.00;10.00;7.00
59179;PMS7003;44956;52.422;20.818;2022-12-29T04:50:22;18.33;14.33;8.33
59179;PMS7003;44956;52.422;20.818;2022-12-29T04:53:29;17.33;17.33;8.00
59179;PMS7003;44956;52.422;20.818;2022-12-29T04:56:33;16.33;14.67;8.33
59179;PMS7003;44956;52.422;20.818;2022-12-29T04:59:37;23.67;16.33;9.33
59179;PMS7003;44956;52.422;20.818;2022-12-29T05:02:40;16.33;14.00;8.00
59179;PMS7003;44956;52.422;20.818;2022-12-29T05:05:44;18.00;12.33;8.00
59179;PMS7003;44956;52.422;20.818;2022-12-29T05:08:46;14.67;13.67;8.00
59179;PMS7003;44956;52.422;20.818;2022-12-29T05:11:50;17.33;14.00;7.33
59179;PMS7003;44956;52.422;20.818;2022-12-29T05:14:53;14.33;11.67;8.00
59179;PMS7003;44956;52.422;20.818;2022-12-29T05:17:56;12.33;12.33;7.00
59179;PMS7003;44956;52.422;20.818;2022-12-29T05:20:59;16.33;12.00;8.00
59179;PMS7003;44956;52.422;20.818;2022-12-29T05:24:03;15.00;13.00;7.33
59179;PMS7003;44956;52.422;20.818;2022-12-29T05:27:06;11.00;10.00;7.00
59179;PMS7003;44956;52.422;20.818;2022-12-29T05:30:19;13.33;12.33;8.00
59179;PMS7003;44956;52.422;20.818;2022-12-29T05:33:22;11.33;11.33;7.33
59179;PMS7003;44956;52.422;20.818;2022-12-29T05:36:26;19.33;17.67;10.00
59179;PMS7003;44956;52.422;20.818;2022-12-29T05:39:37;13.67;12.33;9.33
59179;PMS7003;44956;52.422;20.818;2022-12-29T05:42:42;14.67;13.00;7.67
59179;PMS7003;44956;52.422;20.818;2022-12-29T05:46:06;15.00;13.67;7.33
59179;PMS7003;44956;52.422;20.818;2022-12-29T05:49:21;15.00;14.00;8.00
59179;PMS7003;44956;52.422;20.818;2022-12-29T05:52:33;12.67;12.33;7.00
59179;PMS7003;44956;52.422;20.818;2022-12-29T05:55:36;12.67;12.67;9.33
59179;PMS7003;44956;52.422;20.818;2022-12-29T05:58:46;13.00;13.00;8.00
59179;PMS7003;44956;52.422;20.818;2022-12-29T06:01:49;14.00;11.33;7.67
59179;PMS7003;44956;52.422;20.818;2022-12-29T06:04:52;18.00;15.00;10.67
59179;PMS7003;44956;52.422;20.818;2022-12-29T06:07:57;20.33;16.00;10.00
59179;PMS7003;44956;52.422;20.818;2022-12-29T06:11:00;16.00;14.67;10.00
59179;PMS7003;44956;52.422;20.818;2022-12-29T06:14:03;20.33;14.33;8.00
59179;PMS7003;44956;52.422;20.818;2022-12-29T06:17:08;17.67;15.67;11.00
59179;PMS7003;44956;52.422;20.818;2022-12-29T06:20:12;17.33;13.00;7.33
59179;PMS7003;44956;52.422;20.818;2022-12-29T06:23:16;20.00;14.67;10.00
59179;PMS7003;44956;52.422;20.818;2022-12-29T06:26:21;21.00;18.00;10.67
59179;PMS7003;44956;52.422;20.818;2022-12-29T06:29:24;13.33;13.33;9.33
59179;PMS7003;44956;52.422;20.818;2022-12-29T06:32:27;18.00;18.00;11.00
59179;PMS7003;44956;52.422;20.818;2022-12-29T06:35:35;21.00;18.00;11.00
59179;PMS7003;44956;52.422;20.818;2022-12-29T06:38:40;24.33;20.33;11.00
59179;PMS7003;44956;52.422;20.818;2022-12-29T06:41:43;17.67;17.67;10.00
59179;PMS7003;44956;52.422;20.818;2022-12-29T06:44:57;22.67;17.00;10.33
59179;PMS7003;44956;52.422;20.818;2022-12-29T06:48:01;21.67;16.67;10.67
59179;PMS7003;44956;52.422;20.818;2022-12-29T06:51:04;15.67;15.00;11.00
59179;PMS7003;44956;52.422;20.818;2022-12-29T06:54:07;18.67;14.33;8.00
59179;PMS7003;44956;52.422;20.818;2022-12-29T06:57:11;18.00;13.33;7.00
59179;PMS7003;44956;52.422;20.818;2022-12-29T07:00:15;19.33;14.00;11.00
59179;PMS7003;44956;52.422;20.818;2022-12-29T07:03:24;24.00;15.67;11.00
59179;PMS7003;44956;52.422;20.818;2022-12-29T07:06:27;17.00;15.00;8.00
59179;PMS7003;44956;52.422;20.818;2022-12-29T07:09:30;17.67;14.33;11.00
59179;PMS7003;44956;52.422;20.818;2022-12-29T07:12:33;13.33;12.33;8.00
59179;PMS7003;44956;52.422;20.818;2022-12-29T07:15:37;17.33;17.33;10.00
59179;PMS7003;44956;52.422;20.818;2022-12-29T07:18:39;19.00;15.00;11.00
59179;PMS7003;44956;52.422;20.818;2022-12-29T07:21:43;22.33;17.33;10.00
59179;PMS7003;44956;52.422;20.818;2022-12-29T07:24:48;17.33;17.33;10.67
59179;PMS7003;44956;52.422;20.818;2022-12-29T07:27:51;20.00;14.33;8.67
59179;PMS7003;44956;52.422;20.818;2022-12-29T07:30:54;19.33;17.33;10.00
59179;PMS7003;44956;52.422;20.818;2022-12-29T07:33:57;17.67;17.00;10.67
59179;PMS7003;44956;52.422;20.818;2022-12-29T07:37:00;21.67;17.00;10.00
59179;PMS7003;44956;52.422;20.818;2022-12-29T07:40:03;23.00;19.33;9.33
59179;PMS7003;44956;52.422;20.818;2022-12-29T07:43:06;5.00;3.33;0.00
59179;PMS7003;44956;52.422;20.818;2022-12-29T07:46:16;19.33;18.00;10.33
59179;PMS7003;44956;52.422;20.818;2022-12-29T07:49:39;20.00;15.67;9.33
59179;PMS7003;44956;52.422;20.818;2022-12-29T07:52:43;18.67;17.67;11.00
59179;PMS7003;44956;52.422;20.818;2022-12-29T07:55:47;19.67;17.00;9.33
59179;PMS7003;44956;52.422;20.818;2022-12-29T07:58:50;23.33;18.00;10.00
59179;PMS7003;44956;52.422;20.818;2022-12-29T08:01:53;18.33;16.33;8.00
59179;PMS7003;44956;52.422;20.818;2022-12-29T08:04:56;18.00;15.00;8.00
59179;PMS7003;44956;52.422;20.818;2022-12-29T08:07:59;20.33;18.67;9.00
59179;PMS7003;44956;52.422;20.818;2022-12-29T08:11:02;18.00;15.00;8.00
59179;PMS7003;44956;52.422;20.818;2022-12-29T08:14:05;18.67;14.33;9.33
59179;PMS7003;44956;52.422;20.818;2022-12-29T08:17:09;18.00;15.67;8.33
59179;PMS7003;44956;52.422;20.818;2022-12-29T08:20:12;23.67;16.67;8.67
59179;PMS7003;44956;52.422;20.818;2022-12-29T08:23:15;14.67;14.67;9.00
59179;PMS7003;44956;52.422;20.818;2022-12-29T08:26:18;11.67;11.67;8.67
59179;PMS7003;44956;52.422;20.818;2022-12-29T08:29:22;15.00;14.00;9.00
59179;PMS7003;44956;52.422;20.818;2022-12-29T08:32:26;22.00;12.33;8.00
59179;PMS7003;44956;52.422;20.818;2022-12-29T08:35:31;16.00;15.00;8.00
59179;PMS7003;44956;52.422;20.818;2022-12-29T08:38:34;17.25;13.25;10.50
59179;PMS7003;44956;52.422;20.818;2022-12-29T08:41:37;16.50;13.25;6.75
59179;PMS7003;44956;52.422;20.818;2022-12-29T08:44:40;19.50;16.00;8.00
59179;PMS7003;44956;52.422;20.818;2022-12-29T08:47:43;11.75;11.75;8.00
59179;PMS7003;44956;52.422;20.818;2022-12-29T08:50:46;12.00;12.00;8.00
59179;PMS7003;44956;52.422;20.818;2022-12-29T08:53:50;16.75;13.50;8.25
59179;PMS7003;44956;52.422;20.818;2022-12-29T08:56:53;19.25;14.00;9.00
59179;PMS7003;44956;52.422;20.818;2022-12-29T09:00:02;13.00;11.75;9.00
59179;PMS7003;44956;52.422;20.818;2022-12-29T09:03:06;11.50;11.50;7.75
59179;PMS7003;44956;52.422;20.818;2022-12-29T09:06:10;16.00;15.25;8.00
59179;PMS7003;44956;52.422;20.818;2022-12-29T09:09:13;7.50;7.50;2.00
59179;PMS7003;44956;52.422;20.818;2022-12-29T09:12:16;13.00;13.00;8.00
59179;PMS7003;44956;52.422;20.818;2022-12-29T09:15:19;15.00;15.00;8.00
59179;PMS7003;44956;52.422;20.818;2022-12-29T09:18:23;15.50;14.25;8.25
59179;PMS7003;44956;52.422;20.818;2022-12-29T09:21:25;18.75;16.75;9.00
59179;PMS7003;44956;52.422;20.818;2022-12-29T09:24:29;12.75;12.75;6.50
59179;PMS7003;44956;52.422;20.818;2022-12-29T09:27:33;12.75;9.75;6.00
59179;PMS7003;44956;52.422;20.818;2022-12-29T09:30:37;15.75;15.75;9.00
59179;PMS7003;44956;52.422;20.818;2022-12-29T09:33:39;15.50;13.75;6.25
59179;PMS7003;44956;52.422;20.818;2022-12-29T09:36:43;16.50;12.75;8.00
59179;PMS7003;44956;52.422;20.818;2022-12-29T09:39:46;12.50;11.00;6.00
59179;PMS7003;44956;52.422;20.818;2022-12-29T09:46:12;17.00;16.25;7.00
59179;PMS7003;44956;52.422;20.818;2022-12-29T09:53:01;18.00;13.00;9.00
59179;PMS7003;44956;52.422;20.818;2022-12-29T09:56:13;8.00;7.00;2.00
59179;PMS7003;44956;52.422;20.818;2022-12-29T09:59:19;14.50;12.25;8.00
59179;PMS7003;44956;52.422;20.818;2022-12-29T10:02:40;18.50;15.00;8.00
59179;PMS7003;44956;52.422;20.818;2022-12-29T10:21:59;16.25;13.50;8.50
59179;PMS7003;44956;52.422;20.818;2022-12-29T10:25:16;13.50;11.75;7.75
59179;PMS7003;44956;52.422;20.818;2022-12-29T10:28:41;6.50;6.50;5.00
59179;PMS7003;44956;52.422;20.818;2022-12-29T10:31:50;19.25;15.25;9.25
59179;PMS7003;44956;52.422;20.818;2022-12-29T10:35:01;17.00;15.50;8.50
59179;PMS7003;44956;52.422;20.818;2022-12-29T10:38:13;16.50;16.25;9.00
59179;PMS7003;44956;52.422;20.818;2022-12-29T10:41:59;15.75;15.75;9.75
59179;PMS7003;44956;52.422;20.818;2022-12-29T10:45:12;16.50;15.00;8.00
59179;PMS7003;44956;52.422;20.818;2022-12-29T10:48:20;14.00;12.50;9.00
59179;PMS7003;44956;52.422;20.818;2022-12-29T10:51:34;17.50;16.00;8.25
59179;PMS7003;44956;52.422;20.818;2022-12-29T10:58:04;14.50;13.25;9.00
59179;PMS7003;44956;52.422;20.818;2022-12-29T11:01:09;25.25;17.00;9.00
59179;PMS7003;44956;52.422;20.818;2022-12-29T11:07:36;16.25;13.75;9.75
59179;PMS7003;44956;52.422;20.818;2022-12-29T11:10:43;11.50;11.25;8.00
59179;PMS7003;44956;52.422;20.818;2022-12-29T11:13:50;18.50;17.50;9.50
59179;PMS7003;44956;52.422;20.818;2022-12-29T11:16:59;17.25;16.75;9.00
59179;PMS7003;44956;52.422;20.818;2022-12-29T11:20:19;14.50;12.00;8.00
59179;PMS7003;44956;52.422;20.818;2022-12-29T11:23:37;19.00;13.25;9.00
59179;PMS7003;44956;52.422;20.818;2022-12-29T11:26:43;10.00;8.00;1.00
59179;PMS7003;44956;52.422;20.818;2022-12-29T11:29:46;16.25;13.00;8.50
59179;PMS7003;44956;52.422;20.818;2022-12-29T11:32:52;17.25;13.00;7.25
59179;PMS7003;44956;52.422;20.818;2022-12-29T11:43:02;13.75;13.25;8.75
59179;PMS7003;44956;52.422;20.818;2022-12-29T11:46:07;14.00;13.00;8.00
59179;PMS7003;44956;52.422;20.818;2022-12-29T11:49:22;17.25;15.75;8.50
59179;PMS7003;44956;52.422;20.818;2022-12-29T11:52:29;14.00;14.00;9.00
59179;PMS7003;44956;52.422;20.818;2022-12-29T11:55:37;17.00;17.00;8.75
59179;PMS7003;44956;52.422;20.818;2022-12-29T11:58:40;15.00;14.75;10.00
59179;PMS7003;44956;52.422;20.818;2022-12-29T12:01:43;16.25;14.00;9.75
59179;PMS7003;44956;52.422;20.818;2022-12-29T12:04:48;15.50;14.25;9.75
59179;PMS7003;44956;52.422;20.818;2022-12-29T12:07:59;13.25;11.00;8.00
59179;PMS7003;44956;52.422;20.818;2022-12-29T12:11:23;12.50;12.50;7.25
59179;PMS7003;44956;52.422;20.818;2022-12-29T12:14:40;17.50;16.25;9.00
59179;PMS7003;44956;52.422;20.818;2022-12-29T12:18:11;17.75;13.75;9.00
59179;PMS7003;44956;52.422;20.818;2022-12-29T12:21:25;21.00;17.00;10.00
59179;PMS7003;44956;52.422;20.818;2022-12-29T12:27:42;18.25;18.25;9.00
59179;PMS7003;44956;52.422;20.818;2022-12-29T12:30:52;17.25;14.00;7.25
59179;PMS7003;44956;52.422;20.818;2022-12-29T12:33:59;14.00;13.25;8.50
59179;PMS7003;44956;52.422;20.818;2022-12-29T12:43:51;15.00;14.50;10.00
59179;PMS7003;44956;52.422;20.818;2022-12-29T12:50:14;18.50;16.75;9.25
59179;PMS7003;44956;52.422;20.818;2022-12-29T12:54:00;17.25;13.50;10.00
59179;PMS7003;44956;52.422;20.818;2022-12-29T13:10:53;21.25;15.75;10.00
59179;PMS7003;44956;52.422;20.818;2022-12-29T13:14:05;19.75;16.25;11.00
59179;PMS7003;44956;52.422;20.818;2022-12-29T13:27:04;14.75;14.50;9.00
59179;PMS7003;44956;52.422;20.818;2022-12-29T13:37:53;20.75;17.50;7.25
59179;PMS7003;44956;52.422;20.818;2022-12-29T13:41:01;18.00;16.00;10.50
59179;PMS7003;44956;52.422;20.818;2022-12-29T13:45:13;18.00;17.00;9.00
59179;PMS7003;44956;52.422;20.818;2022-12-29T13:47:49;11.00;11.00;7.50
59179;PMS7003;44956;52.422;20.818;2022-12-29T13:50:58;20.25;15.75;8.50
59179;PMS7003;44956;52.422;20.818;2022-12-29T13:54:18;14.25;14.25;9.00
59179;PMS7003;44956;52.422;20.818;2022-12-29T14:08:02;15.00;14.00;10.00
59179;PMS7003;44956;52.422;20.818;2022-12-29T14:11:10;17.50;17.50;10.50
59179;PMS7003;44956;52.422;20.818;2022-12-29T14:14:23;18.00;14.50;9.00
59179;PMS7003;44956;52.422;20.818;2022-12-29T14:17:30;17.00;15.50;10.00
59179;PMS7003;44956;52.422;20.818;2022-12-29T14:20:33;14.75;14.75;7.00
59179;PMS7003;44956;52.422;20.818;2022-12-29T14:23:41;14.00;14.00;7.00
59179;PMS7003;44956;52.422;20.818;2022-12-29T14:26:45;15.75;14.25;9.00
59179;PMS7003;44956;52.422;20.818;2022-12-29T14:29:49;14.75;13.25;7.00
59179;PMS7003;44956;52.422;20.818;2022-12-29T14:33:03;17.25;16.50;9.25
59179;PMS7003;44956;52.422;20.818;2022-12-29T14:39:43;18.75;18.00;9.25
59179;PMS7003;44956;52.422;20.818;2022-12-29T14:42:47;19.00;18.50;10.75
59179;PMS7003;44956;52.422;20.818;2022-12-29T14:45:55;22.00;18.00;9.75
59179;PMS7003;44956;52.422;20.818;2022-12-29T14:49:02;22.75;20.00;12.00
59179;PMS7003;44956;52.422;20.818;2022-12-29T15:01:52;17.00;14.25;9.00
59179;PMS7003;44956;52.422;20.818;2022-12-29T15:04:58;18.25;17.00;10.00
59179;PMS7003;44956;52.422;20.818;2022-12-29T15:08:04;22.25;21.50;11.25
59179;PMS7003;44956;52.422;20.818;2022-12-29T15:11:25;22.25;19.00;12.50
59179;PMS7003;44956;52.422;20.818;2022-12-29T15:14:51;19.75;18.00;13.50
59179;PMS7003;44956;52.422;20.818;2022-12-29T15:17:55;24.75;24.00;13.50
59179;PMS7003;44956;52.422;20.818;2022-12-29T15:21:00;19.00;17.00;11.25
59179;PMS7003;44956;52.422;20.818;2022-12-29T15:24:04;16.25;14.00;9.00
59179;PMS7003;44956;52.422;20.818;2022-12-29T15:27:15;22.75;18.00;13.00
59179;PMS7003;44956;52.422;20.818;2022-12-29T15:30:22;22.00;20.75;12.50
59179;PMS7003;44956;52.422;20.818;2022-12-29T15:33:26;22.75;19.25;10.00
59179;PMS7003;44956;52.422;20.818;2022-12-29T15:36:34;21.00;19.00;10.00
59179;PMS7003;44956;52.422;20.818;2022-12-29T15:39:40;17.50;16.00;10.00
59179;PMS7003;44956;52.422;20.818;2022-12-29T15:42:52;17.25;15.75;11.25
59179;PMS7003;44956;52.422;20.818;2022-12-29T15:46:08;18.75;15.50;10.50
59179;PMS7003;44956;52.422;20.818;2022-12-29T15:49:13;19.00;17.50;11.25
59179;PMS7003;44956;52.422;20.818;2022-12-29T15:52:17;20.50;18.25;13.00
59179;PMS7003;44956;52.422;20.818;2022-12-29T15:55:28;23.50;21.25;12.25
59179;PMS7003;44956;52.422;20.818;2022-12-29T15:58:45;22.25;16.75;10.75
59179;PMS7003;44956;52.422;20.818;2022-12-29T16:01:54;22.50;20.00;12.00
59179;PMS7003;44956;52.422;20.818;2022-12-29T16:04:58;22.00;18.75;11.25
59179;PMS7003;44956;52.422;20.818;2022-12-29T16:08:31;23.00;21.75;13.25
59179;PMS7003;44956;52.422;20.818;2022-12-29T16:11:37;20.00;17.75;12.75
59179;PMS7003;44956;52.422;20.818;2022-12-29T16:14:42;23.25;21.25;13.00
59179;PMS7003;44956;52.422;20.818;2022-12-29T16:17:49;23.75;19.75;13.00
59179;PMS7003;44956;52.422;20.818;2022-12-29T16:20:53;23.25;18.75;13.00
59179;PMS7003;44956;52.422;20.818;2022-12-29T16:23:59;21.50;18.00;11.25
59179;PMS7003;44956;52.422;20.818;2022-12-29T16:27:08;26.50;22.75;14.00
59179;PMS7003;44956;52.422;20.818;2022-12-29T16:37:00;19.75;18.00;11.25
59179;PMS7003;44956;52.422;20.818;2022-12-29T16:43:31;20.25;20.00;11.50
59179;PMS7003;44956;52.422;20.818;2022-12-29T16:46:36;26.25;22.00;13.00
59179;PMS7003;44956;52.422;20.818;2022-12-29T16:49:45;22.25;20.75;12.75
59179;PMS7003;44956;52.422;20.818;2022-12-29T16:52:53;22.75;19.25;10.50
59179;PMS7003;44956;52.422;20.818;2022-12-29T16:55:57;26.00;21.25;11.25
59179;PMS7003;44956;52.422;20.818;2022-12-29T16:59:28;25.25;20.75;13.00
59179;PMS7003;44956;52.422;20.818;2022-12-29T17:02:35;33.75;26.75;14.00
59179;PMS7003;44956;52.422;20.818;2022-12-29T17:05:47;24.00;22.00;16.00
59179;PMS7003;44956;52.422;20.818;2022-12-29T17:08:58;17.00;15.25;10.25
59179;PMS7003;44956;52.422;20.818;2022-12-29T17:12:01;22.25;20.75;10.75
59179;PMS7003;44956;52.422;20.818;2022-12-29T17:15:31;24.25;18.00;13.50
59179;PMS7003;44956;52.422;20.818;2022-12-29T17:18:36;21.25;18.50;11.50
59179;PMS7003;44956;52.422;20.818;2022-12-29T17:21:40;26.25;19.50;12.00
59179;PMS7003;44956;52.422;20.818;2022-12-29T17:24:43;24.25;21.00;13.50
59179;PMS7003;44956;52.422;20.818;2022-12-29T17:27:53;25.00;20.75;13.00
59179;PMS7003;44956;52.422;20.818;2022-12-29T17:31:03;21.50;18.50;13.00
59179;PMS7003;44956;52.422;20.818;2022-12-29T17:34:10;32.75;25.00;14.00
59179;PMS7003;44956;52.422;20.818;2022-12-29T17:40:27;24.00;20.50;14.00
59179;PMS7003;44956;52.422;20.818;2022-12-29T17:43:34;22.50;20.25;13.75
59179;PMS7003;44956;52.422;20.818;2022-12-29T17:46:38;19.75;19.75;10.75
59179;PMS7003;44956;52.422;20.818;2022-12-29T17:49:41;18.25;16.50;10.50
59179;PMS7003;44956;52.422;20.818;2022-12-29T17:52:52;21.50;17.25;11.00
59179;PMS7003;44956;52.422;20.818;2022-12-29T17:56:01;25.50;23.00;13.00
59179;PMS7003;44956;52.422;20.818;2022-12-29T17:59:07;21.75;19.00;13.00
59179;PMS7003;44956;52.422;20.818;2022-12-29T18:02:22;26.00;21.50;12.75
59179;PMS7003;44956;52.422;20.818;2022-12-29T18:05:27;26.25;19.25;12.75
59179;PMS7003;44956;52.422;20.818;2022-12-29T18:08:31;26.25;22.50;13.50
59179;PMS7003;44956;52.422;20.818;2022-12-29T18:11:40;30.50;23.00;12.50
59179;PMS7003;44956;52.422;20.818;2022-12-29T18:14:45;18.50;18.00;12.75
59179;PMS7003;44956;52.422;20.818;2022-12-29T18:17:49;36.50;25.00;14.00
59179;PMS7003;44956;52.422;20.818;2022-12-29T18:21:00;21.00;18.00;13.25
59179;PMS7003;44956;52.422;20.818;2022-12-29T18:24:03;21.75;20.00;13.00
59179;PMS7003;44956;52.422;20.818;2022-12-29T18:27:12;24.50;22.25;14.25
59179;PMS7003;44956;52.422;20.818;2022-12-29T18:30:18;24.75;23.50;16.75
59179;PMS7003;44956;52.422;20.818;2022-12-29T18:33:21;25.75;24.50;14.00
59179;PMS7003;44956;52.422;20.818;2022-12-29T18:36:28;28.25;22.25;14.50
59179;PMS7003;44956;52.422;20.818;2022-12-29T18:39:31;23.00;22.25;14.25
59179;PMS7003;44956;52.422;20.818;2022-12-29T18:42:34;29.75;23.00;13.50
59179;PMS7003;44956;52.422;20.818;2022-12-29T18:45:38;18.00;18.00;13.00
59179;PMS7003;44956;52.422;20.818;2022-12-29T18:48:42;19.00;13.00;9.00
59179;PMS7003;44956;52.422;20.818;2022-12-29T18:51:46;25.50;25.50;15.00
59179;PMS7003;44956;52.422;20.818;2022-12-29T18:54:50;31.00;26.50;17.25
59179;PMS7003;44956;52.422;20.818;2022-12-29T18:57:53;20.25;19.25;13.00
59179;PMS7003;44956;52.422;20.818;2022-12-29T19:00:57;27.50;24.50;13.00
59179;PMS7003;44956;52.422;20.818;2022-12-29T19:04:00;23.50;22.75;14.00
59179;PMS7003;44956;52.422;20.818;2022-12-29T19:07:03;26.00;22.00;13.00
59179;PMS7003;44956;52.422;20.818;2022-12-29T19:10:06;29.00;22.50;12.25
59179;PMS7003;44956;52.422;20.818;2022-12-29T19:13:14;30.75;25.75;17.25
59179;PMS7003;44956;52.422;20.818;2022-12-29T19:16:31;31.25;22.00;14.75
59179;PMS7003;44956;52.422;20.818;2022-12-29T19:19:34;26.75;23.50;14.75
59179;PMS7003;44956;52.422;20.818;2022-12-29T19:22:38;26.25;22.75;15.25
59179;PMS7003;44956;52.422;20.818;2022-12-29T19:25:42;26.75;24.00;14.00
59179;PMS7003;44956;52.422;20.818;2022-12-29T19:28:48;29.75;27.25;17.25
59179;PMS7003;44956;52.422;20.818;2022-12-29T19:31:51;27.75;27.75;18.75
59179;PMS7003;44956;52.422;20.818;2022-12-29T19:34:55;28.50;25.50;16.75
59179;PMS7003;44956;52.422;20.818;2022-12-29T19:37:58;28.50;23.00;12.00
59179;PMS7003;44956;52.422;20.818;2022-12-29T19:41:04;32.00;27.50;17.50
59179;PMS7003;44956;52.422;20.818;2022-12-29T19:44:08;33.50;31.00;18.00
59179;PMS7003;44956;52.422;20.818;2022-12-29T19:47:11;31.75;27.00;18.00
59179;PMS7003;44956;52.422;20.818;2022-12-29T19:50:16;34.00;27.50;17.00
59179;PMS7003;44956;52.422;20.818;2022-12-29T19:53:19;38.00;29.75;18.00
59179;PMS7003;44956;52.422;20.818;2022-12-29T19:56:23;35.00;29.00;17.00
59179;PMS7003;44956;52.422;20.818;2022-12-29T19:59:26;34.00;27.50;14.00